Time;durP1;ratioP1;P1;durP2;ratioP2;P2;SDS_P1;SDS_P2;PMS_P1;PMS_P2;Temp;Humidity;BMP_temperature;BMP_pressure;BME280_temperature;BME280_humidity;BME280_pressure;Samples;Min_cycle;Max_cycle;Signal;HPM_P1;HPM_P2
2022/03/30 05:03:37;;;;;;;24.08;11.63;;;11.10;90.40;;;;;;6193190;22;20083;-81
2022/03/30 05:06:03;;;;;;;28.00;12.27;;;10.90;91.10;;;;;;6169348;23;20001;-80
2022/03/30 05:08:29;;;;;;;26.55;11.45;;;10.80;91.90;;;;;;6169745;23;20009;-80
2022/03/30 05:10:55;;;;;;;24.65;11.73;;;10.70;91.90;;;;;;6169126;23;20001;-80
2022/03/30 08:25:22;;;;;;;37.38;17.73;;;10.70;99.90;;;;;;6077696;23;20058;-81
2022/03/30 08:34:26;;;;;;;35.20;16.63;;;10.60;99.90;;;;;;6075879;23;20116;-80
2022/03/30 08:37:00;;;;;;;36.72;16.90;;;10.70;99.90;;;;;;6078202;23;20058;-79
2022/03/30 08:39:34;;;;;;;35.10;15.52;;;10.80;99.90;;;;;;6074007;23;20020;-81
2022/03/30 08:42:29;;;;;;;31.90;16.95;;;10.80;99.90;;;;;;6197908;23;19997;-80
2022/03/30 08:44:55;;;;;;;32.70;15.50;;;10.90;99.90;;;;;;6195874;23;20064;-81
2022/03/30 12:01:25;;;;;;;21.08;9.07;;;13.40;98.30;;;;;;6197043;22;20059;-81
2022/03/30 12:03:55;;;;;;;24.42;10.32;;;13.40;98.10;;;;;;6228365;23;20012;-82
2022/03/30 12:06:24;;;;;;;23.70;10.55;;;13.50;98.90;;;;;;6204206;23;20020;-81
2022/03/30 12:08:51;;;;;;;25.73;9.20;;;13.50;97.90;;;;;;6177752;23;20028;-80
2022/03/30 12:26:41;;;;;;;24.00;11.13;;;13.40;96.80;;;;;;6131431;23;20064;-78
2022/03/30 12:29:18;;;;;;;23.13;11.80;;;13.40;95.60;;;;;;6202189;23;20198;-81
2022/03/30 12:44:37;;;;;;;13.55;7.97;;;12.80;96.40;;;;;;6203485;23;20035;-82
2022/03/30 15:21:34;;;;;;;14.50;9.45;;;13.30;91.80;;;;;;6217277;22;20092;-82
2022/03/30 15:24:01;;;;;;;15.20;10.05;;;13.00;92.40;;;;;;6257009;23;20182;-84
2022/03/30 15:26:27;;;;;;;15.10;9.63;;;13.00;92.70;;;;;;6254917;23;20004;-85
2022/03/30 15:28:54;;;;;;;16.05;10.35;;;13.00;92.50;;;;;;6227958;23;20015;-84
2022/03/30 15:31:25;;;;;;;15.75;9.50;;;13.00;92.30;;;;;;6251570;22;20016;-82
2022/03/30 15:33:55;;;;;;;12.90;9.40;;;12.90;92.10;;;;;;6225764;23;20019;-83
2022/03/30 15:37:09;;;;;;;16.33;9.68;;;12.70;92.30;;;;;;6223357;23;20173;-82
2022/03/30 15:40:00;;;;;;;17.40;11.40;;;12.60;92.30;;;;;;6227932;23;20046;-83
2022/03/30 15:42:32;;;;;;;16.10;11.20;;;12.20;92.80;;;;;;6250011;23;20005;-83
2022/03/30 15:45:17;;;;;;;16.30;11.35;;;11.90;93.50;;;;;;6225191;23;20314;-82
2022/03/30 15:47:52;;;;;;;17.52;11.93;;;11.70;94.10;;;;;;6216290;23;20013;-83
2022/03/30 15:50:19;;;;;;;18.58;11.52;;;11.70;94.20;;;;;;6168597;23;20089;-82
2022/03/30 15:53:04;;;;;;;19.08;12.05;;;11.60;94.00;;;;;;6163520;23;20121;-82
2022/03/30 15:55:30;;;;;;;17.75;11.57;;;11.50;94.10;;;;;;6115826;23;20017;-84
2022/03/30 15:57:56;;;;;;;18.15;11.27;;;11.40;94.30;;;;;;6165007;23;20001;-84
2022/03/30 16:03:58;;;;;;;17.13;11.35;;;11.40;94.70;;;;;;6134192;23;20002;-83
2022/03/30 16:06:25;;;;;;;20.55;12.40;;;11.30;94.90;;;;;;6160494;23;20009;-84
2022/03/30 16:08:58;;;;;;;19.02;11.90;;;11.20;94.80;;;;;;6162543;23;19998;-82
2022/03/30 16:14:35;;;;;;;19.95;12.45;;;11.00;95.10;;;;;;6111698;23;20009;-84
2022/03/30 16:17:02;;;;;;;19.45;13.00;;;10.90;95.40;;;;;;6134724;23;20120;-83
2022/03/30 16:19:28;;;;;;;19.02;12.73;;;10.80;95.70;;;;;;6162645;23;20060;-83
2022/03/30 16:21:55;;;;;;;21.55;13.77;;;10.80;96.00;;;;;;6170518;23;20112;-81
2022/03/30 16:24:24;;;;;;;21.67;14.52;;;10.70;96.20;;;;;;6188158;23;20012;-83
2022/03/30 16:26:53;;;;;;;23.58;15.18;;;10.70;96.60;;;;;;6193827;23;20016;-82
2022/03/30 16:29:44;;;;;;;25.77;16.58;;;10.70;96.80;;;;;;6195133;23;20206;-83
2022/03/30 16:32:29;;;;;;;25.38;16.00;;;10.60;96.70;;;;;;6192947;22;20029;-84
2022/03/30 16:34:55;;;;;;;25.27;17.38;;;10.60;96.50;;;;;;6194145;23;20350;-82
2022/03/30 16:37:21;;;;;;;27.65;17.40;;;10.60;96.40;;;;;;6194191;23;20025;-83
2022/03/30 16:39:56;;;;;;;28.02;18.98;;;10.60;96.50;;;;;;6196074;23;20005;-82
2022/03/30 16:42:33;;;;;;;27.63;18.52;;;10.50;96.80;;;;;;6195088;23;20131;-81
2022/03/30 16:45:00;;;;;;;26.30;17.95;;;10.50;96.90;;;;;;6194806;23;20080;-82
2022/03/30 16:47:27;;;;;;;26.77;18.05;;;10.50;97.00;;;;;;6221383;23;20044;-82
2022/03/30 16:49:54;;;;;;;26.60;18.35;;;10.40;96.80;;;;;;6198552;23;19997;-84
2022/03/30 16:52:22;;;;;;;28.25;17.75;;;10.40;97.00;;;;;;6196963;23;20013;-83
2022/03/30 16:54:49;;;;;;;28.27;19.13;;;10.40;96.80;;;;;;6197178;23;20009;-82
2022/03/30 16:57:15;;;;;;;28.00;19.10;;;10.40;96.50;;;;;;6196997;23;20061;-83
2022/03/30 16:59:46;;;;;;;27.85;19.05;;;10.40;96.80;;;;;;6221439;23;20005;-82
2022/03/30 17:02:20;;;;;;;28.27;18.50;;;10.40;96.80;;;;;;6182919;23;20350;-80
2022/03/30 17:04:46;;;;;;;25.67;17.77;;;10.30;96.90;;;;;;6196940;23;20009;-83
2022/03/30 17:52:01;;;;;;;27.58;17.38;;;9.70;99.00;;;;;;6171921;23;20173;-79
2022/03/30 17:54:45;;;;;;;24.70;14.75;;;9.80;99.70;;;;;;6189194;23;20004;-78
2022/03/30 17:57:13;;;;;;;20.30;13.73;;;9.70;99.90;;;;;;6237195;23;20000;-80
2022/03/30 17:59:44;;;;;;;21.83;13.52;;;9.70;99.90;;;;;;6211216;23;20012;-79
2022/03/30 18:02:23;;;;;;;20.50;12.65;;;9.70;99.90;;;;;;6217348;23;20086;-80
2022/03/30 18:04:51;;;;;;;19.63;12.50;;;9.60;99.90;;;;;;6255332;23;20051;-78
2022/03/30 18:08:28;;;;;;;20.15;13.38;;;9.60;99.90;;;;;;6232940;23;20069;-79
2022/03/30 18:11:04;;;;;;;21.77;13.60;;;9.60;99.90;;;;;;6173407;23;20074;-80
2022/03/30 18:14:08;;;;;;;20.17;13.77;;;9.50;99.90;;;;;;6257833;23;20065;-80
2022/03/30 18:16:46;;;;;;;22.40;13.40;;;9.40;99.90;;;;;;6206499;23;20021;-80
2022/03/30 18:19:31;;;;;;;20.80;13.93;;;9.40;99.90;;;;;;6259315;22;20005;-81
2022/03/30 18:23:06;;;;;;;19.50;13.00;;;9.40;99.90;;;;;;6209741;23;20009;-80
2022/03/30 18:33:50;;;;;;;18.53;12.67;;;9.50;99.90;;;;;;6026384;23;20091;-80
2022/03/30 18:36:22;;;;;;;21.48;12.85;;;9.50;99.90;;;;;;6061273;23;20015;-79
2022/03/30 18:39:08;;;;;;;22.77;13.60;;;9.50;99.90;;;;;;6037718;23;20007;-79
2022/03/30 18:42:41;;;;;;;22.80;13.95;;;9.40;99.90;;;;;;6043218;23;20108;-81
2022/03/30 19:10:17;;;;;;;;;;;;;;;;;;;;;
2022/03/30 20:03:53;;;;;;;26.40;15.35;;;8.80;99.90;;;;;;6159054;23;20070;-78
2022/03/30 20:39:24;;;;;;;;;;;;;;;;;;;;;
2022/03/30 20:42:27;;;;;;;21.05;12.95;;;8.80;99.90;;;;;;5969812;24;20055;-79
2022/03/30 20:44:55;;;;;;;21.45;14.15;;;8.80;99.90;;;;;;5975155;24;20005;-79
2022/03/30 20:55:12;;;;;;;23.75;14.02;;;8.90;99.90;;;;;;5922438;24;20023;-79
2022/03/30 20:57:46;;;;;;;20.58;13.48;;;8.90;99.90;;;;;;5996382;23;20014;-80
2022/03/30 23:09:25;;;;;;;;;;;;;;;;;;;;;
